sensor_id;sensor_type;location;lat;lon;timestamp;P1;durP1;ratioP1;P2;durP2;ratioP2
76894;SDS011;65855;42.030;13.078;2022-12-18T00:01:16;7.28;;;3.97;;
76894;SDS011;65855;42.030;13.078;2022-12-18T00:03:44;10.15;;;5.57;;
76894;SDS011;65855;42.030;13.078;2022-12-18T00:06:10;8.45;;;4.35;;
76894;SDS011;65855;42.030;13.078;2022-12-18T00:08:36;17.60;;;7.35;;
76894;SDS011;65855;42.030;13.078;2022-12-18T00:11:10;13.00;;;6.93;;
76894;SDS011;65855;42.030;13.078;2022-12-18T00:13:37;7.78;;;4.05;;
76894;SDS011;65855;42.030;13.078;2022-12-18T00:16:03;13.88;;;5.28;;
76894;SDS011;65855;42.030;13.078;2022-12-18T00:18:30;15.15;;;8.77;;
76894;SDS011;65855;42.030;13.078;2022-12-18T00:20:58;11.90;;;6.53;;
76894;SDS011;65855;42.030;13.078;2022-12-18T00:23:25;10.43;;;6.00;;
76894;SDS011;65855;42.030;13.078;2022-12-18T00:25:51;9.68;;;6.53;;
76894;SDS011;65855;42.030;13.078;2022-12-18T00:28:17;13.32;;;6.82;;
76894;SDS011;65855;42.030;13.078;2022-12-18T00:30:43;17.17;;;10.90;;
76894;SDS011;65855;42.030;13.078;2022-12-18T00:33:09;27.00;;;13.98;;
76894;SDS011;65855;42.030;13.078;2022-12-18T00:35:34;9.80;;;5.70;;
76894;SDS011;65855;42.030;13.078;2022-12-18T00:38:00;11.15;;;5.55;;
76894;SDS011;65855;42.030;13.078;2022-12-18T00:40:25;12.65;;;6.55;;
76894;SDS011;65855;42.030;13.078;2022-12-18T00:42:50;15.35;;;7.10;;
76894;SDS011;65855;42.030;13.078;2022-12-18T00:45:25;6.10;;;2.20;;
76894;SDS011;65855;42.030;13.078;2022-12-18T00:47:53;6.43;;;3.88;;
76894;SDS011;65855;42.030;13.078;2022-12-18T00:50:18;15.52;;;8.07;;
76894;SDS011;65855;42.030;13.078;2022-12-18T00:52:44;14.38;;;7.93;;
76894;SDS011;65855;42.030;13.078;2022-12-18T00:55:10;11.43;;;7.68;;
76894;SDS011;65855;42.030;13.078;2022-12-18T00:57:36;11.85;;;6.78;;
76894;SDS011;65855;42.030;13.078;2022-12-18T01:00:03;10.07;;;5.80;;
76894;SDS011;65855;42.030;13.078;2022-12-18T01:02:30;13.55;;;5.95;;
76894;SDS011;65855;42.030;13.078;2022-12-18T01:04:56;10.65;;;5.82;;
76894;SDS011;65855;42.030;13.078;2022-12-18T01:07:21;9.85;;;5.63;;
76894;SDS011;65855;42.030;13.078;2022-12-18T01:09:47;14.63;;;7.15;;
76894;SDS011;65855;42.030;13.078;2022-12-18T01:12:12;15.93;;;10.35;;
76894;SDS011;65855;42.030;13.078;2022-12-18T01:14:38;16.40;;;10.98;;
76894;SDS011;65855;42.030;13.078;2022-12-18T01:17:03;10.95;;;7.45;;
76894;SDS011;65855;42.030;13.078;2022-12-18T01:19:29;11.90;;;8.20;;
76894;SDS011;65855;42.030;13.078;2022-12-18T01:21:55;9.80;;;6.75;;
76894;SDS011;65855;42.030;13.078;2022-12-18T01:24:20;11.65;;;7.20;;
76894;SDS011;65855;42.030;13.078;2022-12-18T01:26:46;11.95;;;7.93;;
76894;SDS011;65855;42.030;13.078;2022-12-18T01:29:11;11.38;;;6.65;;
76894;SDS011;65855;42.030;13.078;2022-12-18T01:31:36;9.27;;;4.45;;
76894;SDS011;65855;42.030;13.078;2022-12-18T01:34:03;19.35;;;10.05;;
76894;SDS011;65855;42.030;13.078;2022-12-18T01:36:33;13.85;;;9.10;;
76894;SDS011;65855;42.030;13.078;2022-12-18T01:39:00;12.98;;;8.05;;
76894;SDS011;65855;42.030;13.078;2022-12-18T01:41:28;10.32;;;4.80;;
76894;SDS011;65855;42.030;13.078;2022-12-18T01:47:20;8.73;;;3.75;;
76894;SDS011;65855;42.030;13.078;2022-12-18T01:49:46;11.60;;;6.45;;
76894;SDS011;65855;42.030;13.078;2022-12-18T01:52:11;8.15;;;3.15;;
76894;SDS011;65855;42.030;13.078;2022-12-18T01:54:37;9.25;;;3.30;;
76894;SDS011;65855;42.030;13.078;2022-12-18T01:57:02;8.95;;;4.93;;
76894;SDS011;65855;42.030;13.078;2022-12-18T01:59:28;10.75;;;7.80;;
76894;SDS011;65855;42.030;13.078;2022-12-18T02:01:55;16.17;;;4.88;;
76894;SDS011;65855;42.030;13.078;2022-12-18T02:04:22;9.85;;;3.47;;
76894;SDS011;65855;42.030;13.078;2022-12-18T02:06:50;11.07;;;4.45;;
76894;SDS011;65855;42.030;13.078;2022-12-18T02:09:31;6.90;;;3.90;;
76894;SDS011;65855;42.030;13.078;2022-12-18T02:12:10;15.63;;;8.65;;
76894;SDS011;65855;42.030;13.078;2022-12-18T02:14:49;9.05;;;3.72;;
76894;SDS011;65855;42.030;13.078;2022-12-18T02:17:43;5.00;;;4.30;;
76894;SDS011;65855;42.030;13.078;2022-12-18T02:26:06;6.30;;;4.18;;
76894;SDS011;65855;42.030;13.078;2022-12-18T02:31:29;8.27;;;4.60;;
76894;SDS011;65855;42.030;13.078;2022-12-18T02:34:00;7.63;;;4.13;;
76894;SDS011;65855;42.030;13.078;2022-12-18T02:36:28;8.65;;;4.78;;
76894;SDS011;65855;42.030;13.078;2022-12-18T02:38:55;5.40;;;2.25;;
76894;SDS011;65855;42.030;13.078;2022-12-18T02:41:21;6.20;;;4.72;;
76894;SDS011;65855;42.030;13.078;2022-12-18T02:43:48;6.45;;;3.90;;
76894;SDS011;65855;42.030;13.078;2022-12-18T02:46:24;11.52;;;4.97;;
76894;SDS011;65855;42.030;13.078;2022-12-18T02:49:34;16.17;;;8.38;;
76894;SDS011;65855;42.030;13.078;2022-12-18T02:55:22;9.15;;;6.15;;
76894;SDS011;65855;42.030;13.078;2022-12-18T03:01:00;5.88;;;3.90;;
76894;SDS011;65855;42.030;13.078;2022-12-18T03:03:42;5.18;;;1.80;;
76894;SDS011;65855;42.030;13.078;2022-12-18T03:06:23;5.38;;;3.58;;
76894;SDS011;65855;42.030;13.078;2022-12-18T03:08:53;7.28;;;2.65;;
76894;SDS011;65855;42.030;13.078;2022-12-18T03:11:23;5.32;;;3.38;;
76894;SDS011;65855;42.030;13.078;2022-12-18T03:14:11;13.55;;;7.45;;
76894;SDS011;65855;42.030;13.078;2022-12-18T03:16:41;24.58;;;12.07;;
76894;SDS011;65855;42.030;13.078;2022-12-18T03:19:08;35.08;;;17.20;;
76894;SDS011;65855;42.030;13.078;2022-12-18T03:21:42;35.50;;;20.83;;
76894;SDS011;65855;42.030;13.078;2022-12-18T03:24:10;31.08;;;15.20;;
76894;SDS011;65855;42.030;13.078;2022-12-18T03:26:36;35.60;;;18.88;;
76894;SDS011;65855;42.030;13.078;2022-12-18T03:29:27;6.38;;;4.20;;
76894;SDS011;65855;42.030;13.078;2022-12-18T03:32:12;5.20;;;3.33;;
76894;SDS011;65855;42.030;13.078;2022-12-18T03:34:44;13.95;;;9.18;;
76894;SDS011;65855;42.030;13.078;2022-12-18T03:37:14;6.72;;;4.40;;
76894;SDS011;65855;42.030;13.078;2022-12-18T03:39:40;5.10;;;3.95;;
76894;SDS011;65855;42.030;13.078;2022-12-18T03:42:10;4.85;;;1.40;;
76894;SDS011;65855;42.030;13.078;2022-12-18T03:50:06;6.47;;;3.55;;
76894;SDS011;65855;42.030;13.078;2022-12-18T03:52:55;7.45;;;4.65;;
76894;SDS011;65855;42.030;13.078;2022-12-18T03:55:22;5.53;;;1.80;;
76894;SDS011;65855;42.030;13.078;2022-12-18T03:57:50;6.68;;;4.13;;
76894;SDS011;65855;42.030;13.078;2022-12-18T04:00:18;7.60;;;3.50;;
76894;SDS011;65855;42.030;13.078;2022-12-18T04:02:54;14.00;;;7.05;;
76894;SDS011;65855;42.030;13.078;2022-12-18T04:05:21;10.35;;;6.57;;
76894;SDS011;65855;42.030;13.078;2022-12-18T04:07:50;9.18;;;4.88;;
76894;SDS011;65855;42.030;13.078;2022-12-18T04:10:17;7.43;;;4.50;;
76894;SDS011;65855;42.030;13.078;2022-12-18T04:12:43;5.43;;;3.95;;
76894;SDS011;65855;42.030;13.078;2022-12-18T04:15:09;12.82;;;8.50;;
76894;SDS011;65855;42.030;13.078;2022-12-18T04:17:35;16.45;;;12.35;;
76894;SDS011;65855;42.030;13.078;2022-12-18T04:20:01;22.15;;;13.63;;
76894;SDS011;65855;42.030;13.078;2022-12-18T04:22:27;16.85;;;9.05;;
76894;SDS011;65855;42.030;13.078;2022-12-18T04:24:52;11.30;;;6.10;;
76894;SDS011;65855;42.030;13.078;2022-12-18T04:27:18;15.43;;;10.52;;
76894;SDS011;65855;42.030;13.078;2022-12-18T04:29:43;4.57;;;1.70;;
76894;SDS011;65855;42.030;13.078;2022-12-18T04:32:09;5.05;;;3.95;;
76894;SDS011;65855;42.030;13.078;2022-12-18T04:34:34;14.60;;;7.75;;
76894;SDS011;65855;42.030;13.078;2022-12-18T04:37:00;5.53;;;3.38;;
76894;SDS011;65855;42.030;13.078;2022-12-18T04:39:25;6.03;;;4.15;;
76894;SDS011;65855;42.030;13.078;2022-12-18T04:41:51;4.00;;;1.20;;
76894;SDS011;65855;42.030;13.078;2022-12-18T04:44:16;3.88;;;1.95;;
76894;SDS011;65855;42.030;13.078;2022-12-18T04:46:42;8.18;;;4.60;;
76894;SDS011;65855;42.030;13.078;2022-12-18T04:49:08;5.65;;;4.07;;
76894;SDS011;65855;42.030;13.078;2022-12-18T04:51:35;4.03;;;2.90;;
76894;SDS011;65855;42.030;13.078;2022-12-18T04:54:00;4.35;;;2.78;;
76894;SDS011;65855;42.030;13.078;2022-12-18T04:56:26;4.28;;;3.00;;
76894;SDS011;65855;42.030;13.078;2022-12-18T04:58:51;3.88;;;1.58;;
76894;SDS011;65855;42.030;13.078;2022-12-18T05:01:17;2.75;;;1.00;;
76894;SDS011;65855;42.030;13.078;2022-12-18T05:03:43;5.53;;;1.55;;
76894;SDS011;65855;42.030;13.078;2022-12-18T05:06:08;2.90;;;0.93;;
76894;SDS011;65855;42.030;13.078;2022-12-18T05:08:34;10.52;;;3.78;;
76894;SDS011;65855;42.030;13.078;2022-12-18T05:11:01;4.25;;;3.22;;
76894;SDS011;65855;42.030;13.078;2022-12-18T05:13:28;4.45;;;1.60;;
76894;SDS011;65855;42.030;13.078;2022-12-18T05:15:54;4.57;;;3.55;;
76894;SDS011;65855;42.030;13.078;2022-12-18T05:18:21;4.20;;;2.88;;
76894;SDS011;65855;42.030;13.078;2022-12-18T05:20:47;4.80;;;2.90;;
76894;SDS011;65855;42.030;13.078;2022-12-18T05:23:12;4.18;;;3.03;;
76894;SDS011;65855;42.030;13.078;2022-12-18T05:25:38;4.80;;;3.55;;
76894;SDS011;65855;42.030;13.078;2022-12-18T05:28:03;5.45;;;3.30;;
76894;SDS011;65855;42.030;13.078;2022-12-18T05:30:29;3.45;;;2.47;;
76894;SDS011;65855;42.030;13.078;2022-12-18T05:32:54;4.03;;;2.60;;
76894;SDS011;65855;42.030;13.078;2022-12-18T05:35:20;5.28;;;4.05;;
76894;SDS011;65855;42.030;13.078;2022-12-18T05:37:45;4.68;;;3.55;;
76894;SDS011;65855;42.030;13.078;2022-12-18T05:40:11;3.92;;;1.55;;
76894;SDS011;65855;42.030;13.078;2022-12-18T05:42:37;6.43;;;3.58;;
76894;SDS011;65855;42.030;13.078;2022-12-18T05:45:02;4.80;;;3.40;;
76894;SDS011;65855;42.030;13.078;2022-12-18T05:47:28;4.28;;;3.88;;
76894;SDS011;65855;42.030;13.078;2022-12-18T05:49:54;2.83;;;1.02;;
76894;SDS011;65855;42.030;13.078;2022-12-18T05:52:19;2.53;;;0.82;;
76894;SDS011;65855;42.030;13.078;2022-12-18T05:54:45;4.47;;;4.07;;
76894;SDS011;65855;42.030;13.078;2022-12-18T05:57:10;5.47;;;3.80;;
76894;SDS011;65855;42.030;13.078;2022-12-18T05:59:36;4.50;;;3.25;;
76894;SDS011;65855;42.030;13.078;2022-12-18T06:02:01;3.97;;;1.42;;
76894;SDS011;65855;42.030;13.078;2022-12-18T06:04:27;6.60;;;4.35;;
76894;SDS011;65855;42.030;13.078;2022-12-18T06:06:53;3.90;;;1.30;;
76894;SDS011;65855;42.030;13.078;2022-12-18T06:09:19;5.13;;;4.22;;
76894;SDS011;65855;42.030;13.078;2022-12-18T06:11:45;7.13;;;3.55;;
76894;SDS011;65855;42.030;13.078;2022-12-18T06:14:10;6.35;;;3.35;;
76894;SDS011;65855;42.030;13.078;2022-12-18T06:16:35;7.85;;;4.28;;
76894;SDS011;65855;42.030;13.078;2022-12-18T06:19:03;5.28;;;3.72;;
76894;SDS011;65855;42.030;13.078;2022-12-18T06:21:30;6.43;;;3.65;;
76894;SDS011;65855;42.030;13.078;2022-12-18T06:23:55;5.13;;;3.88;;
76894;SDS011;65855;42.030;13.078;2022-12-18T06:26:21;8.68;;;7.97;;
76894;SDS011;65855;42.030;13.078;2022-12-18T06:28:47;4.95;;;3.25;;
76894;SDS011;65855;42.030;13.078;2022-12-18T06:31:12;7.43;;;3.33;;
76894;SDS011;65855;42.030;13.078;2022-12-18T06:33:38;4.43;;;1.30;;
76894;SDS011;65855;42.030;13.078;2022-12-18T06:36:05;6.88;;;1.42;;
76894;SDS011;65855;42.030;13.078;2022-12-18T06:38:33;4.03;;;1.48;;
76894;SDS011;65855;42.030;13.078;2022-12-18T06:40:59;4.28;;;1.63;;
76894;SDS011;65855;42.030;13.078;2022-12-18T06:43:24;5.20;;;3.28;;
76894;SDS011;65855;42.030;13.078;2022-12-18T06:45:50;6.55;;;4.72;;
76894;SDS011;65855;42.030;13.078;2022-12-18T06:48:20;7.65;;;4.68;;
76894;SDS011;65855;42.030;13.078;2022-12-18T06:50:46;4.72;;;3.10;;
76894;SDS011;65855;42.030;13.078;2022-12-18T06:53:11;6.80;;;4.18;;
76894;SDS011;65855;42.030;13.078;2022-12-18T06:55:37;4.57;;;2.78;;
76894;SDS011;65855;42.030;13.078;2022-12-18T06:58:02;6.35;;;1.52;;
76894;SDS011;65855;42.030;13.078;2022-12-18T07:00:28;4.95;;;3.38;;
76894;SDS011;65855;42.030;13.078;2022-12-18T07:02:53;18.25;;;10.70;;
76894;SDS011;65855;42.030;13.078;2022-12-18T07:05:19;6.32;;;2.47;;
76894;SDS011;65855;42.030;13.078;2022-12-18T07:07:44;5.60;;;3.33;;
76894;SDS011;65855;42.030;13.078;2022-12-18T07:10:09;5.95;;;4.13;;
76894;SDS011;65855;42.030;13.078;2022-12-18T07:12:35;6.63;;;4.28;;
76894;SDS011;65855;42.030;13.078;2022-12-18T07:15:01;4.35;;;2.00;;
76894;SDS011;65855;42.030;13.078;2022-12-18T07:17:26;4.38;;;1.52;;
76894;SDS011;65855;42.030;13.078;2022-12-18T07:19:52;6.50;;;3.95;;
76894;SDS011;65855;42.030;13.078;2022-12-18T07:22:17;9.82;;;7.10;;
76894;SDS011;65855;42.030;13.078;2022-12-18T07:24:43;7.22;;;4.55;;
76894;SDS011;65855;42.030;13.078;2022-12-18T07:27:08;6.95;;;4.22;;
76894;SDS011;65855;42.030;13.078;2022-12-18T07:29:34;6.57;;;4.38;;
76894;SDS011;65855;42.030;13.078;2022-12-18T07:31:59;4.75;;;3.50;;
76894;SDS011;65855;42.030;13.078;2022-12-18T07:34:24;10.15;;;6.38;;
76894;SDS011;65855;42.030;13.078;2022-12-18T07:36:50;5.82;;;4.15;;
76894;SDS011;65855;42.030;13.078;2022-12-18T07:39:15;5.25;;;3.50;;
76894;SDS011;65855;42.030;13.078;2022-12-18T07:41:41;3.25;;;1.23;;
76894;SDS011;65855;42.030;13.078;2022-12-18T07:44:29;3.83;;;1.38;;
76894;SDS011;65855;42.030;13.078;2022-12-18T07:46:54;4.40;;;2.42;;
76894;SDS011;65855;42.030;13.078;2022-12-18T07:49:20;4.65;;;3.08;;
76894;SDS011;65855;42.030;13.078;2022-12-18T07:51:45;4.68;;;2.97;;
76894;SDS011;65855;42.030;13.078;2022-12-18T07:54:14;2.35;;;1.08;;
76894;SDS011;65855;42.030;13.078;2022-12-18T07:56:39;7.20;;;3.00;;
76894;SDS011;65855;42.030;13.078;2022-12-18T07:59:05;5.38;;;3.78;;
76894;SDS011;65855;42.030;13.078;2022-12-18T08:01:30;4.43;;;1.27;;
76894;SDS011;65855;42.030;13.078;2022-12-18T08:03:56;18.90;;;11.68;;
76894;SDS011;65855;42.030;13.078;2022-12-18T08:06:22;9.95;;;6.90;;
76894;SDS011;65855;42.030;13.078;2022-12-18T08:08:48;6.82;;;2.95;;
76894;SDS011;65855;42.030;13.078;2022-12-18T08:11:13;7.55;;;3.08;;
76894;SDS011;65855;42.030;13.078;2022-12-18T08:13:39;5.05;;;3.20;;
76894;SDS011;65855;42.030;13.078;2022-12-18T08:16:06;7.85;;;6.03;;
76894;SDS011;65855;42.030;13.078;2022-12-18T08:18:32;5.18;;;3.45;;
76894;SDS011;65855;42.030;13.078;2022-12-18T08:21:07;3.90;;;1.40;;
76894;SDS011;65855;42.030;13.078;2022-12-18T08:23:53;3.25;;;0.93;;
76894;SDS011;65855;42.030;13.078;2022-12-18T08:26:20;6.53;;;2.95;;
76894;SDS011;65855;42.030;13.078;2022-12-18T08:28:46;4.50;;;3.22;;
76894;SDS011;65855;42.030;13.078;2022-12-18T08:31:11;3.72;;;1.02;;
76894;SDS011;65855;42.030;13.078;2022-12-18T08:33:37;5.03;;;2.88;;
76894;SDS011;65855;42.030;13.078;2022-12-18T08:36:04;3.70;;;1.40;;
76894;SDS011;65855;42.030;13.078;2022-12-18T08:38:31;4.43;;;2.38;;
76894;SDS011;65855;42.030;13.078;2022-12-18T08:41:06;4.40;;;2.72;;
76894;SDS011;65855;42.030;13.078;2022-12-18T08:43:34;5.72;;;1.85;;
76894;SDS011;65855;42.030;13.078;2022-12-18T08:46:18;5.03;;;2.63;;
76894;SDS011;65855;42.030;13.078;2022-12-18T08:48:44;5.30;;;2.72;;
76894;SDS011;65855;42.030;13.078;2022-12-18T08:51:10;4.50;;;1.88;;
76894;SDS011;65855;42.030;13.078;2022-12-18T08:53:36;3.53;;;0.98;;
76894;SDS011;65855;42.030;13.078;2022-12-18T08:56:02;4.85;;;2.60;;
76894;SDS011;65855;42.030;13.078;2022-12-18T08:58:29;7.57;;;3.47;;
76894;SDS011;65855;42.030;13.078;2022-12-18T09:00:59;4.90;;;2.47;;
76894;SDS011;65855;42.030;13.078;2022-12-18T09:03:25;5.47;;;3.10;;
76894;SDS011;65855;42.030;13.078;2022-12-18T09:05:51;6.53;;;3.47;;
76894;SDS011;65855;42.030;13.078;2022-12-18T09:08:16;6.53;;;4.43;;
76894;SDS011;65855;42.030;13.078;2022-12-18T09:10:45;6.50;;;3.20;;
76894;SDS011;65855;42.030;13.078;2022-12-18T09:13:12;7.20;;;4.20;;
76894;SDS011;65855;42.030;13.078;2022-12-18T09:15:55;7.70;;;5.10;;
76894;SDS011;65855;42.030;13.078;2022-12-18T09:18:21;8.98;;;4.32;;
76894;SDS011;65855;42.030;13.078;2022-12-18T09:20:48;6.50;;;4.05;;
76894;SDS011;65855;42.030;13.078;2022-12-18T09:23:15;5.60;;;2.58;;
76894;SDS011;65855;42.030;13.078;2022-12-18T09:25:40;4.78;;;2.88;;
76894;SDS011;65855;42.030;13.078;2022-12-18T09:28:09;4.63;;;2.10;;
76894;SDS011;65855;42.030;13.078;2022-12-18T09:30:37;4.03;;;1.10;;
76894;SDS011;65855;42.030;13.078;2022-12-18T09:33:03;5.57;;;3.22;;
76894;SDS011;65855;42.030;13.078;2022-12-18T09:35:28;4.00;;;2.38;;
76894;SDS011;65855;42.030;13.078;2022-12-18T09:37:54;3.53;;;1.83;;
76894;SDS011;65855;42.030;13.078;2022-12-18T09:40:21;4.40;;;2.20;;
76894;SDS011;65855;42.030;13.078;2022-12-18T09:42:53;4.78;;;2.67;;
76894;SDS011;65855;42.030;13.078;2022-12-18T09:45:25;3.90;;;1.77;;
76894;SDS011;65855;42.030;13.078;2022-12-18T09:47:52;4.03;;;1.98;;
76894;SDS011;65855;42.030;13.078;2022-12-18T09:52:57;3.03;;;0.98;;
76894;SDS011;65855;42.030;13.078;2022-12-18T10:00:57;6.22;;;3.35;;
76894;SDS011;65855;42.030;13.078;2022-12-18T10:03:22;5.43;;;2.70;;
76894;SDS011;65855;42.030;13.078;2022-12-18T10:11:01;4.82;;;2.00;;
76894;SDS011;65855;42.030;13.078;2022-12-18T10:13:47;4.68;;;2.33;;
76894;SDS011;65855;42.030;13.078;2022-12-18T10:16:36;5.50;;;2.75;;
76894;SDS011;65855;42.030;13.078;2022-12-18T10:27:35;5.72;;;2.88;;
76894;SDS011;65855;42.030;13.078;2022-12-18T10:29:55;5.00;;;2.45;;
76894;SDS011;65855;42.030;13.078;2022-12-18T10:32:22;5.38;;;2.40;;
76894;SDS011;65855;42.030;13.078;2022-12-18T10:34:50;5.38;;;2.00;;
76894;SDS011;65855;42.030;13.078;2022-12-18T10:37:19;4.15;;;1.92;;
76894;SDS011;65855;42.030;13.078;2022-12-18T10:39:47;4.43;;;2.00;;
76894;SDS011;65855;42.030;13.078;2022-12-18T10:42:32;7.03;;;2.08;;
76894;SDS011;65855;42.030;13.078;2022-12-18T10:45:02;3.90;;;1.83;;
76894;SDS011;65855;42.030;13.078;2022-12-18T10:47:31;9.13;;;5.03;;
76894;SDS011;65855;42.030;13.078;2022-12-18T10:49:58;7.78;;;3.40;;
76894;SDS011;65855;42.030;13.078;2022-12-18T10:52:25;6.63;;;3.58;;
76894;SDS011;65855;42.030;13.078;2022-12-18T10:54:52;5.70;;;2.15;;
76894;SDS011;65855;42.030;13.078;2022-12-18T10:59:53;6.50;;;2.30;;
76894;SDS011;65855;42.030;13.078;2022-12-18T11:02:54;6.57;;;3.00;;
76894;SDS011;65855;42.030;13.078;2022-12-18T11:08:02;3.30;;;1.13;;
76894;SDS011;65855;42.030;13.078;2022-12-18T11:10:32;5.93;;;2.50;;
76894;SDS011;65855;42.030;13.078;2022-12-18T11:13:15;4.50;;;1.92;;
76894;SDS011;65855;42.030;13.078;2022-12-18T11:15:46;5.95;;;1.70;;
76894;SDS011;65855;42.030;13.078;2022-12-18T11:18:32;5.43;;;2.67;;
76894;SDS011;65855;42.030;13.078;2022-12-18T11:21:04;5.10;;;2.83;;
76894;SDS011;65855;42.030;13.078;2022-12-18T11:23:32;4.47;;;2.03;;
76894;SDS011;65855;42.030;13.078;2022-12-18T11:25:59;4.13;;;1.42;;
76894;SDS011;65855;42.030;13.078;2022-12-18T11:28:40;4.70;;;1.30;;
76894;SDS011;65855;42.030;13.078;2022-12-18T11:31:26;4.65;;;2.42;;
76894;SDS011;65855;42.030;13.078;2022-12-18T11:33:55;4.40;;;1.02;;
76894;SDS011;65855;42.030;13.078;2022-12-18T11:36:25;4.65;;;2.13;;
76894;SDS011;65855;42.030;13.078;2022-12-18T11:38:56;4.28;;;2.55;;
76894;SDS011;65855;42.030;13.078;2022-12-18T11:41:29;4.60;;;2.28;;
76894;SDS011;65855;42.030;13.078;2022-12-18T11:44:39;6.88;;;3.22;;
76894;SDS011;65855;42.030;13.078;2022-12-18T11:47:22;6.88;;;2.20;;
76894;SDS011;65855;42.030;13.078;2022-12-18T11:50:16;5.30;;;1.63;;
76894;SDS011;65855;42.030;13.078;2022-12-18T11:52:44;3.72;;;1.67;;
76894;SDS011;65855;42.030;13.078;2022-12-18T11:55:14;3.92;;;1.30;;
76894;SDS011;65855;42.030;13.078;2022-12-18T11:57:48;4.13;;;1.85;;
76894;SDS011;65855;42.030;13.078;2022-12-18T12:01:04;4.07;;;1.45;;
76894;SDS011;65855;42.030;13.078;2022-12-18T12:03:38;3.92;;;2.10;;
76894;SDS011;65855;42.030;13.078;2022-12-18T12:17:37;6.40;;;3.55;;
76894;SDS011;65855;42.030;13.078;2022-12-18T12:22:56;7.25;;;2.97;;
76894;SDS011;65855;42.030;13.078;2022-12-18T12:25:37;3.05;;;1.13;;
76894;SDS011;65855;42.030;13.078;2022-12-18T12:28:21;4.40;;;1.95;;
76894;SDS011;65855;42.030;13.078;2022-12-18T12:36:21;3.13;;;1.27;;
76894;SDS011;65855;42.030;13.078;2022-12-18T12:39:01;4.30;;;2.38;;
76894;SDS011;65855;42.030;13.078;2022-12-18T12:41:32;5.68;;;1.30;;
76894;SDS011;65855;42.030;13.078;2022-12-18T12:44:23;5.47;;;2.78;;
76894;SDS011;65855;42.030;13.078;2022-12-18T12:46:52;4.05;;;1.73;;
76894;SDS011;65855;42.030;13.078;2022-12-18T12:49:22;5.57;;;2.35;;
76894;SDS011;65855;42.030;13.078;2022-12-18T12:54:54;5.57;;;2.35;;
76894;SDS011;65855;42.030;13.078;2022-12-18T12:57:27;4.82;;;2.58;;
76894;SDS011;65855;42.030;13.078;2022-12-18T13:00:04;6.50;;;3.20;;
76894;SDS011;65855;42.030;13.078;2022-12-18T13:02:36;4.57;;;1.80;;
76894;SDS011;65855;42.030;13.078;2022-12-18T13:05:33;4.60;;;1.27;;
76894;SDS011;65855;42.030;13.078;2022-12-18T13:08:06;3.90;;;1.98;;
76894;SDS011;65855;42.030;13.078;2022-12-18T13:10:34;3.92;;;2.03;;
76894;SDS011;65855;42.030;13.078;2022-12-18T13:13:06;4.05;;;0.60;;
76894;SDS011;65855;42.030;13.078;2022-12-18T13:15:36;3.63;;;1.65;;
76894;SDS011;65855;42.030;13.078;2022-12-18T13:18:04;5.85;;;2.05;;
76894;SDS011;65855;42.030;13.078;2022-12-18T13:20:36;3.40;;;1.35;;
76894;SDS011;65855;42.030;13.078;2022-12-18T13:25:45;7.05;;;2.85;;
76894;SDS011;65855;42.030;13.078;2022-12-18T13:28:12;7.28;;;2.88;;
76894;SDS011;65855;42.030;13.078;2022-12-18T13:35:39;7.57;;;3.47;;
76894;SDS011;65855;42.030;13.078;2022-12-18T13:38:21;9.63;;;5.05;;
76894;SDS011;65855;42.030;13.078;2022-12-18T13:40:57;4.90;;;2.40;;
76894;SDS011;65855;42.030;13.078;2022-12-18T13:43:29;8.18;;;4.13;;
76894;SDS011;65855;42.030;13.078;2022-12-18T13:48:30;7.40;;;4.28;;
76894;SDS011;65855;42.030;13.078;2022-12-18T13:51:03;11.05;;;6.15;;
76894;SDS011;65855;42.030;13.078;2022-12-18T13:53:51;6.85;;;3.22;;
76894;SDS011;65855;42.030;13.078;2022-12-18T13:56:23;8.18;;;4.13;;
76894;SDS011;65855;42.030;13.078;2022-12-18T14:01:41;5.65;;;2.03;;
76894;SDS011;65855;42.030;13.078;2022-12-18T14:06:42;5.75;;;2.17;;
76894;SDS011;65855;42.030;13.078;2022-12-18T14:09:12;6.20;;;2.85;;
76894;SDS011;65855;42.030;13.078;2022-12-18T14:11:48;4.55;;;1.58;;
76894;SDS011;65855;42.030;13.078;2022-12-18T14:14:16;5.47;;;1.17;;
76894;SDS011;65855;42.030;13.078;2022-12-18T14:16:42;12.07;;;4.90;;
76894;SDS011;65855;42.030;13.078;2022-12-18T14:19:09;4.75;;;2.83;;
76894;SDS011;65855;42.030;13.078;2022-12-18T14:21:39;3.75;;;1.10;;
76894;SDS011;65855;42.030;13.078;2022-12-18T14:24:26;7.22;;;3.10;;
76894;SDS011;65855;42.030;13.078;2022-12-18T14:26:51;6.63;;;3.78;;
76894;SDS011;65855;42.030;13.078;2022-12-18T14:29:29;6.55;;;2.10;;
76894;SDS011;65855;42.030;13.078;2022-12-18T14:32:12;5.00;;;2.85;;
76894;SDS011;65855;42.030;13.078;2022-12-18T14:34:42;7.68;;;2.05;;
76894;SDS011;65855;42.030;13.078;2022-12-18T14:37:25;5.55;;;3.58;;
76894;SDS011;65855;42.030;13.078;2022-12-18T14:40:02;5.28;;;3.13;;
76894;SDS011;65855;42.030;13.078;2022-12-18T14:42:38;6.88;;;3.80;;
76894;SDS011;65855;42.030;13.078;2022-12-18T14:47:57;7.30;;;3.83;;
76894;SDS011;65855;42.030;13.078;2022-12-18T14:50:23;7.38;;;3.17;;
76894;SDS011;65855;42.030;13.078;2022-12-18T14:52:49;11.50;;;4.72;;
76894;SDS011;65855;42.030;13.078;2022-12-18T14:55:18;7.57;;;4.35;;
76894;SDS011;65855;42.030;13.078;2022-12-18T14:57:45;7.22;;;4.90;;
76894;SDS011;65855;42.030;13.078;2022-12-18T15:00:15;5.90;;;4.07;;
76894;SDS011;65855;42.030;13.078;2022-12-18T15:02:44;4.85;;;1.60;;
76894;SDS011;65855;42.030;13.078;2022-12-18T15:07:42;14.15;;;6.85;;
76894;SDS011;65855;42.030;13.078;2022-12-18T15:15:02;12.25;;;5.88;;
76894;SDS011;65855;42.030;13.078;2022-12-18T15:17:29;33.25;;;14.10;;
76894;SDS011;65855;42.030;13.078;2022-12-18T15:19:59;41.45;;;20.63;;
76894;SDS011;65855;42.030;13.078;2022-12-18T15:22:27;34.35;;;17.90;;
76894;SDS011;65855;42.030;13.078;2022-12-18T15:24:55;47.97;;;26.83;;
76894;SDS011;65855;42.030;13.078;2022-12-18T15:27:32;43.78;;;22.33;;
76894;SDS011;65855;42.030;13.078;2022-12-18T15:32:37;26.77;;;14.88;;
76894;SDS011;65855;42.030;13.078;2022-12-18T15:35:17;21.98;;;11.38;;
76894;SDS011;65855;42.030;13.078;2022-12-18T15:37:43;9.45;;;4.80;;
76894;SDS011;65855;42.030;13.078;2022-12-18T15:40:12;7.10;;;4.80;;
76894;SDS011;65855;42.030;13.078;2022-12-18T15:42:39;11.88;;;6.70;;
76894;SDS011;65855;42.030;13.078;2022-12-18T15:45:23;33.63;;;13.63;;
76894;SDS011;65855;42.030;13.078;2022-12-18T15:47:48;9.95;;;4.78;;
76894;SDS011;65855;42.030;13.078;2022-12-18T15:50:14;24.90;;;13.02;;
76894;SDS011;65855;42.030;13.078;2022-12-18T15:52:40;15.18;;;9.07;;
76894;SDS011;65855;42.030;13.078;2022-12-18T15:55:29;10.10;;;4.63;;
76894;SDS011;65855;42.030;13.078;2022-12-18T15:58:13;175.38;;;68.45;;
76894;SDS011;65855;42.030;13.078;2022-12-18T16:00:39;134.20;;;56.88;;
76894;SDS011;65855;42.030;13.078;2022-12-18T16:03:05;121.70;;;47.25;;
76894;SDS011;65855;42.030;13.078;2022-12-18T16:05:31;146.68;;;57.95;;
76894;SDS011;65855;42.030;13.078;2022-12-18T16:07:57;42.38;;;19.48;;
76894;SDS011;65855;42.030;13.078;2022-12-18T16:10:24;34.72;;;15.57;;
76894;SDS011;65855;42.030;13.078;2022-12-18T16:12:50;39.10;;;19.85;;
76894;SDS011;65855;42.030;13.078;2022-12-18T16:15:15;94.82;;;38.03;;
76894;SDS011;65855;42.030;13.078;2022-12-18T16:17:41;46.85;;;22.50;;
76894;SDS011;65855;42.030;13.078;2022-12-18T16:20:14;56.40;;;27.90;;
76894;SDS011;65855;42.030;13.078;2022-12-18T16:22:41;8.75;;;5.38;;
76894;SDS011;65855;42.030;13.078;2022-12-18T16:25:17;8.43;;;5.53;;
76894;SDS011;65855;42.030;13.078;2022-12-18T16:27:47;7.57;;;3.17;;